sensor_id;sensor_type;location;lat;lon;timestamp;pressure;altitude;pressure_sealevel;temperature;humidity
31357;BME280;60001;48.404;11.738;2023-04-02T00:00:13;95478.50;;;8.33;75.79
31357;BME280;60001;48.404;11.738;2023-04-02T00:01:46;95478.50;;;8.33;75.99
31357;BME280;60001;48.404;11.738;2023-04-02T00:03:17;95480.34;;;8.32;76.11
31357;BME280;60001;48.404;11.738;2023-04-02T00:05:24;95474.63;;;8.35;75.84
31357;BME280;60001;48.404;11.738;2023-04-02T00:07:22;95477.25;;;8.35;75.67
31357;BME280;60001;48.404;11.738;2023-04-02T00:09:03;95483.03;;;8.37;75.78
31357;BME280;60001;48.404;11.738;2023-04-02T00:10:49;95481.19;;;8.38;76.19
31357;BME280;60001;48.404;11.738;2023-04-02T00:12:22;95482.78;;;8.39;75.55
31357;BME280;60001;48.404;11.738;2023-04-02T00:13:54;95484.34;;;8.40;75.82
31357;BME280;60001;48.404;11.738;2023-04-02T00:15:25;95483.28;;;8.41;76.10
31357;BME280;60001;48.404;11.738;2023-04-02T00:16:59;95481.44;;;8.41;75.70
31357;BME280;60001;48.404;11.738;2023-04-02T00:18:33;95481.44;;;8.41;75.43
31357;BME280;60001;48.404;11.738;2023-04-02T00:20:07;95485.69;;;8.42;76.19
31357;BME280;60001;48.404;11.738;2023-04-02T00:21:43;95480.66;;;8.41;75.50
31357;BME280;60001;48.404;11.738;2023-04-02T00:23:16;95483.06;;;8.42;75.63
31357;BME280;60001;48.404;11.738;2023-04-02T00:24:52;95482.28;;;8.42;75.29
31357;BME280;60001;48.404;11.738;2023-04-02T00:26:29;95482.50;;;8.40;75.71
31357;BME280;60001;48.404;11.738;2023-04-02T00:28:02;95487.53;;;8.42;75.29
31357;BME280;60001;48.404;11.738;2023-04-02T00:29:34;95492.53;;;8.43;75.00
31357;BME280;60001;48.404;11.738;2023-04-02T00:31:09;95492.00;;;8.46;75.52
31357;BME280;60001;48.404;11.738;2023-04-02T00:32:41;95486.22;;;8.44;74.93
31357;BME280;60001;48.404;11.738;2023-04-02T00:34:17;95491.25;;;8.51;75.44
31357;BME280;60001;48.404;11.738;2023-04-02T00:35:52;95481.22;;;8.48;75.10
31357;BME280;60001;48.404;11.738;2023-04-02T00:37:27;95486.75;;;8.51;75.53
31357;BME280;60001;48.404;11.738;2023-04-02T00:39:01;95495.97;;;8.54;74.86
31357;BME280;60001;48.404;11.738;2023-04-02T00:40:38;95490.72;;;8.54;75.42
31357;BME280;60001;48.404;11.738;2023-04-02T00:42:11;95485.19;;;8.50;74.99
31357;BME280;60001;48.404;11.738;2023-04-02T00:43:45;95489.66;;;8.55;75.34
31357;BME280;60001;48.404;11.738;2023-04-02T00:45:24;95493.09;;;8.50;75.25
31357;BME280;60001;48.404;11.738;2023-04-02T00:47:03;95487.03;;;8.50;74.56
31357;BME280;60001;48.404;11.738;2023-04-02T00:48:43;95491.75;;;8.53;75.21
31357;BME280;60001;48.404;11.738;2023-04-02T00:50:25;95496.22;;;8.47;75.20
31357;BME280;60001;48.404;11.738;2023-04-02T00:52:02;95498.84;;;8.47;74.22
31357;BME280;60001;48.404;11.738;2023-04-02T00:53:36;95490.72;;;8.49;74.49
31357;BME280;60001;48.404;11.738;2023-04-02T00:55:15;95491.25;;;8.51;74.31
31357;BME280;60001;48.404;11.738;2023-04-02T00:56:52;95487.81;;;8.50;75.02
31357;BME280;60001;48.404;11.738;2023-04-02T00:58:27;95496.25;;;8.52;74.49
31357;BME280;60001;48.404;11.738;2023-04-02T01:00:13;95494.91;;;8.55;74.58
31357;BME280;60001;48.404;11.738;2023-04-02T01:01:52;95496.53;;;8.56;74.35
31357;BME280;60001;48.404;11.738;2023-04-02T01:03:29;95505.72;;;8.54;74.42
31357;BME280;60001;48.404;11.738;2023-04-02T01:05:20;95503.63;;;8.56;74.39
31357;BME280;60001;48.404;11.738;2023-04-02T01:06:56;95498.59;;;8.54;74.17
31357;BME280;60001;48.404;11.738;2023-04-02T01:08:48;95501.78;;;8.56;73.99
31357;BME280;60001;48.404;11.738;2023-04-02T01:10:39;95503.38;;;8.57;74.68
31357;BME280;60001;48.404;11.738;2023-04-02T01:12:31;95505.72;;;8.54;74.14
31357;BME280;60001;48.404;11.738;2023-04-02T01:14:15;95499.38;;;8.55;74.02
31357;BME280;60001;48.404;11.738;2023-04-02T01:15:55;95504.16;;;8.58;74.30
31357;BME280;60001;48.404;11.738;2023-04-02T01:17:42;95510.22;;;8.58;73.80
31357;BME280;60001;48.404;11.738;2023-04-02T01:19:51;95504.94;;;8.58;73.90
31357;BME280;60001;48.404;11.738;2023-04-02T01:21:44;95510.22;;;8.58;73.81
31357;BME280;60001;48.404;11.738;2023-04-02T01:23:29;95502.31;;;8.58;74.08
31357;BME280;60001;48.404;11.738;2023-04-02T01:25:05;95507.06;;;8.56;73.92
31357;BME280;60001;48.404;11.738;2023-04-02T01:26:53;95502.03;;;8.60;73.64
31357;BME280;60001;48.404;11.738;2023-04-02T01:30:28;95507.31;;;8.60;74.24
31357;BME280;60001;48.404;11.738;2023-04-02T01:32:03;95506.78;;;8.58;73.81
31357;BME280;60001;48.404;11.738;2023-04-02T01:33:36;95508.63;;;8.57;74.51
31357;BME280;60001;48.404;11.738;2023-04-02T01:35:09;95508.38;;;8.59;74.02
31357;BME280;60001;48.404;11.738;2023-04-02T01:36:53;95498.31;;;8.45;74.53
31357;BME280;60001;48.404;11.738;2023-04-02T01:38:34;95509.91;;;8.55;74.62
31357;BME280;60001;48.404;11.738;2023-04-02T01:40:23;95519.66;;;8.54;74.32
31357;BME280;60001;48.404;11.738;2023-04-02T01:42:05;95516.72;;;8.45;74.02
31357;BME280;60001;48.404;11.738;2023-04-02T01:43:46;95519.66;;;8.49;74.76
31357;BME280;60001;48.404;11.738;2023-04-02T01:45:22;95526.50;;;8.50;74.41
31357;BME280;60001;48.404;11.738;2023-04-02T01:46:55;95521.22;;;8.50;74.08
31357;BME280;60001;48.404;11.738;2023-04-02T01:48:30;95523.56;;;8.46;74.20
31357;BME280;60001;48.404;11.738;2023-04-02T01:50:12;95525.72;;;8.49;73.91
31357;BME280;60001;48.404;11.738;2023-04-02T01:51:50;95520.69;;;8.48;74.25
31357;BME280;60001;48.404;11.738;2023-04-02T01:53:27;95526.72;;;8.43;73.78
31357;BME280;60001;48.404;11.738;2023-04-02T01:54:59;95524.34;;;8.42;74.06
31357;BME280;60001;48.404;11.738;2023-04-02T01:56:33;95533.03;;;8.47;74.03
31357;BME280;60001;48.404;11.738;2023-04-02T01:58:08;95524.63;;;8.45;74.46
31357;BME280;60001;48.404;11.738;2023-04-02T01:59:41;95522.00;;;8.45;74.16
31357;BME280;60001;48.404;11.738;2023-04-02T02:01:16;95531.19;;;8.48;74.37
31357;BME280;60001;48.404;11.738;2023-04-02T02:02:51;95527.25;;;8.45;74.42
31357;BME280;60001;48.404;11.738;2023-04-02T02:04:24;95534.88;;;8.47;74.08
31357;BME280;60001;48.404;11.738;2023-04-02T02:05:57;95521.97;;;8.40;74.44
31357;BME280;60001;48.404;11.738;2023-04-02T02:07:29;95525.16;;;8.42;74.06
31357;BME280;60001;48.404;11.738;2023-04-02T02:09:03;95522.75;;;8.41;74.47
31357;BME280;60001;48.404;11.738;2023-04-02T02:10:38;95526.91;;;8.32;74.24
31357;BME280;60001;48.404;11.738;2023-04-02T02:12:12;95524.06;;;8.38;74.53
31357;BME280;60001;48.404;11.738;2023-04-02T02:13:46;95528.22;;;8.34;74.40
31357;BME280;60001;48.404;11.738;2023-04-02T02:15:21;95534.59;;;8.38;74.46
31357;BME280;60001;48.404;11.738;2023-04-02T02:16:54;95538.00;;;8.39;73.85
31357;BME280;60001;48.404;11.738;2023-04-02T02:18:28;95534.59;;;8.38;74.35
31357;BME280;60001;48.404;11.738;2023-04-02T02:20:01;95534.31;;;8.40;74.72
31357;BME280;60001;48.404;11.738;2023-04-02T02:21:43;95537.75;;;8.40;74.48
31357;BME280;60001;48.404;11.738;2023-04-02T02:23:15;95544.59;;;8.36;74.48
31357;BME280;60001;48.404;11.738;2023-04-02T02:24:48;95546.16;;;8.37;74.22
31357;BME280;60001;48.404;11.738;2023-04-02T02:26:23;95548.25;;;8.35;74.98
31357;BME280;60001;48.404;11.738;2023-04-02T02:28:01;95540.91;;;8.37;74.80
31357;BME280;60001;48.404;11.738;2023-04-02T02:29:37;95543.00;;;8.35;74.75
31357;BME280;60001;48.404;11.738;2023-04-02T02:31:18;95551.16;;;8.39;73.96
31357;BME280;60001;48.404;11.738;2023-04-02T02:33:04;95549.59;;;8.38;74.58
31357;BME280;60001;48.404;11.738;2023-04-02T02:34:44;95547.44;;;8.35;74.63
31357;BME280;60001;48.404;11.738;2023-04-02T02:36:23;95549.84;;;8.36;74.50
31357;BME280;60001;48.404;11.738;2023-04-02T02:38:19;95547.22;;;8.36;74.16
31357;BME280;60001;48.404;11.738;2023-04-02T02:39:56;95551.44;;;8.37;74.46
31357;BME280;60001;48.404;11.738;2023-04-02T02:41:35;95547.75;;;8.38;74.47
31357;BME280;60001;48.404;11.738;2023-04-02T02:43:13;95546.16;;;8.37;74.27
31357;BME280;60001;48.404;11.738;2023-04-02T02:44:48;95552.66;;;8.30;74.33
31357;BME280;60001;48.404;11.738;2023-04-02T02:46:23;95556.63;;;8.32;74.67
31357;BME280;60001;48.404;11.738;2023-04-02T02:47:59;95554.00;;;8.32;75.06
31357;BME280;60001;48.404;11.738;2023-04-02T02:49:36;95554.25;;;8.31;74.64
31357;BME280;60001;48.404;11.738;2023-04-02T02:51:20;95554.25;;;8.31;74.48
31357;BME280;60001;48.404;11.738;2023-04-02T02:52:56;95557.66;;;8.31;74.71
31357;BME280;60001;48.404;11.738;2023-04-02T02:54:30;95554.25;;;8.31;74.70
31357;BME280;60001;48.404;11.738;2023-04-02T02:56:02;95562.94;;;8.31;74.50
31357;BME280;60001;48.404;11.738;2023-04-02T02:57:38;95558.97;;;8.29;75.14
31357;BME280;60001;48.404;11.738;2023-04-02T02:59:14;95561.84;;;8.27;75.41
31357;BME280;60001;48.404;11.738;2023-04-02T03:00:48;95569.72;;;8.27;75.71
31357;BME280;60001;48.404;11.738;2023-04-02T03:02:20;95560.53;;;8.24;75.49
31357;BME280;60001;48.404;11.738;2023-04-02T03:03:53;95570.28;;;8.29;75.10
31357;BME280;60001;48.404;11.738;2023-04-02T03:05:27;95575.00;;;8.27;74.95
31357;BME280;60001;48.404;11.738;2023-04-02T03:07:03;95567.91;;;8.28;75.72
31357;BME280;60001;48.404;11.738;2023-04-02T03:08:41;95567.41;;;8.31;75.24
31357;BME280;60001;48.404;11.738;2023-04-02T03:10:20;95566.09;;;8.28;75.40
31357;BME280;60001;48.404;11.738;2023-04-02T03:12:01;95567.59;;;8.19;75.70
31357;BME280;60001;48.404;11.738;2023-04-02T03:13:37;95570.13;;;8.04;75.56
31357;BME280;60001;48.404;11.738;2023-04-02T03:15:19;95577.56;;;8.17;75.86
31357;BME280;60001;48.404;11.738;2023-04-02T03:16:59;95577.63;;;8.22;75.92
31357;BME280;60001;48.404;11.738;2023-04-02T03:18:44;95575.47;;;8.19;76.05
31357;BME280;60001;48.404;11.738;2023-04-02T03:20:24;95575.47;;;8.19;76.11
31357;BME280;60001;48.404;11.738;2023-04-02T03:22:05;95576.03;;;8.21;76.46
31357;BME280;60001;48.404;11.738;2023-04-02T03:23:46;95581.28;;;8.21;76.11
31357;BME280;60001;48.404;11.738;2023-04-02T03:25:27;95574.69;;;8.18;75.68
31357;BME280;60001;48.404;11.738;2023-04-02T03:27:10;95585.50;;;8.22;76.25
31357;BME280;60001;48.404;11.738;2023-04-02T03:28:49;95582.09;;;8.21;76.23
31357;BME280;60001;48.404;11.738;2023-04-02T03:30:28;95584.16;;;8.19;75.79
31357;BME280;60001;48.404;11.738;2023-04-02T03:32:06;95593.41;;;8.22;76.05
31357;BME280;60001;48.404;11.738;2023-04-02T03:33:47;95589.47;;;8.24;75.80
31357;BME280;60001;48.404;11.738;2023-04-02T03:35:27;95588.91;;;8.22;76.00
31357;BME280;60001;48.404;11.738;2023-04-02T03:37:06;95596.81;;;8.22;76.12
31357;BME280;60001;48.404;11.738;2023-04-02T03:38:44;95596.81;;;8.22;75.64
31357;BME280;60001;48.404;11.738;2023-04-02T03:40:21;95599.16;;;8.19;75.67
31357;BME280;60001;48.404;11.738;2023-04-02T03:42:00;95597.56;;;8.18;75.42
31357;BME280;60001;48.404;11.738;2023-04-02T03:43:38;95598.34;;;8.18;75.91
31357;BME280;60001;48.404;11.738;2023-04-02T03:45:17;95606.53;;;8.22;76.15
31357;BME280;60001;48.404;11.738;2023-04-02T03:46:54;95604.44;;;8.24;76.21
31357;BME280;60001;48.404;11.738;2023-04-02T03:48:36;95604.19;;;8.25;76.05
31357;BME280;60001;48.404;11.738;2023-04-02T03:50:14;95613.91;;;8.25;75.74
31357;BME280;60001;48.404;11.738;2023-04-02T03:51:53;95606.03;;;8.25;75.75
31357;BME280;60001;48.404;11.738;2023-04-02T03:53:30;95607.88;;;8.24;75.25
31357;BME280;60001;48.404;11.738;2023-04-02T03:55:10;95608.66;;;8.25;75.35
31357;BME280;60001;48.404;11.738;2023-04-02T03:56:45;95598.66;;;8.22;75.39
31357;BME280;60001;48.404;11.738;2023-04-02T03:58:22;95604.16;;;8.20;75.69
31357;BME280;60001;48.404;11.738;2023-04-02T04:00:02;95604.16;;;8.20;75.52
31357;BME280;60001;48.404;11.738;2023-04-02T04:01:42;95614.44;;;8.22;76.08
31357;BME280;60001;48.404;11.738;2023-04-02T04:03:21;95613.88;;;8.20;75.91
31357;BME280;60001;48.404;11.738;2023-04-02T04:04:57;95611.22;;;8.15;75.54
31357;BME280;60001;48.404;11.738;2023-04-02T04:06:30;95605.97;;;8.15;76.16
31357;BME280;60001;48.404;11.738;2023-04-02T04:08:07;95612.56;;;8.17;75.58
31357;BME280;60001;48.404;11.738;2023-04-02T04:09:48;95629.91;;;8.18;76.31
31357;BME280;60001;48.404;11.738;2023-04-02T04:11:25;95620.41;;;8.12;76.13
31357;BME280;60001;48.404;11.738;2023-04-02T04:13:03;95622.78;;;8.14;75.56
31357;BME280;60001;48.404;11.738;2023-04-02T04:14:42;95631.22;;;8.16;76.17
31357;BME280;60001;48.404;11.738;2023-04-02T04:16:21;95627.53;;;8.17;76.23
31357;BME280;60001;48.404;11.738;2023-04-02T04:18:00;95630.44;;;8.15;76.43
31357;BME280;60001;48.404;11.738;2023-04-02T04:19:42;95635.13;;;8.13;76.44
31357;BME280;60001;48.404;11.738;2023-04-02T04:21:20;95638.56;;;8.14;76.36
31357;BME280;60001;48.404;11.738;2023-04-02T04:23:16;95643.00;;;8.13;75.90
31357;BME280;60001;48.404;11.738;2023-04-02T04:24:50;95644.84;;;8.13;76.53
31357;BME280;60001;48.404;11.738;2023-04-02T04:26:35;95644.84;;;8.13;76.43
31357;BME280;60001;48.404;11.738;2023-04-02T04:28:20;95646.69;;;8.12;76.31
31357;BME280;60001;48.404;11.738;2023-04-02T04:29:59;95644.84;;;8.13;76.30
31357;BME280;60001;48.404;11.738;2023-04-02T04:31:41;95649.31;;;8.12;76.90
31357;BME280;60001;48.404;11.738;2023-04-02T04:33:20;95648.53;;;8.12;76.54
31357;BME280;60001;48.404;11.738;2023-04-02T04:34:58;95646.69;;;8.12;76.23
31357;BME280;60001;48.404;11.738;2023-04-02T04:36:40;95651.72;;;8.14;76.40
31357;BME280;60001;48.404;11.738;2023-04-02T04:38:30;95650.88;;;8.08;76.24
31357;BME280;60001;48.404;11.738;2023-04-02T04:40:12;95664.06;;;8.13;76.61
31357;BME280;60001;48.404;11.738;2023-04-02T04:41:49;95662.47;;;8.12;76.56
31357;BME280;60001;48.404;11.738;2023-04-02T04:43:32;95664.31;;;8.12;76.26
31357;BME280;60001;48.404;11.738;2023-04-02T04:45:20;95661.69;;;8.12;76.87
31357;BME280;60001;48.404;11.738;2023-04-02T04:46:59;95667.72;;;8.12;76.08
31357;BME280;60001;48.404;11.738;2023-04-02T04:48:37;95670.63;;;8.11;76.23
31357;BME280;60001;48.404;11.738;2023-04-02T04:50:20;95673.50;;;8.09;76.94
31357;BME280;60001;48.404;11.738;2023-04-02T04:51:57;95675.28;;;8.04;76.06
31357;BME280;60001;48.404;11.738;2023-04-02T04:53:30;95663.44;;;8.01;76.08
31357;BME280;60001;48.404;11.738;2023-04-02T04:55:16;95683.19;;;8.04;76.65
31357;BME280;60001;48.404;11.738;2023-04-02T04:56:55;95681.34;;;8.04;76.12
31357;BME280;60001;48.404;11.738;2023-04-02T04:58:34;95682.91;;;8.05;76.56
31357;BME280;60001;48.404;11.738;2023-04-02T05:00:15;95686.34;;;8.06;76.72
31357;BME280;60001;48.404;11.738;2023-04-02T05:01:54;95692.66;;;8.05;76.87
31357;BME280;60001;48.404;11.738;2023-04-02T05:03:35;95690.03;;;8.05;76.73
31357;BME280;60001;48.404;11.738;2023-04-02T05:05:18;95696.84;;;8.06;76.36
31357;BME280;60001;48.404;11.738;2023-04-02T05:06:54;95692.09;;;8.03;76.50
31357;BME280;60001;48.404;11.738;2023-04-02T05:08:33;95697.38;;;8.03;76.17
31357;BME280;60001;48.404;11.738;2023-04-02T05:10:13;95700.00;;;8.03;76.50
31357;BME280;60001;48.404;11.738;2023-04-02T05:12:02;95707.03;;;7.97;76.71
31357;BME280;60001;48.404;11.738;2023-04-02T05:13:41;95697.31;;;7.97;75.89
31357;BME280;60001;48.404;11.738;2023-04-02T05:15:20;95704.47;;;8.02;76.20
31357;BME280;60001;48.404;11.738;2023-04-02T05:17:00;95709.72;;;8.02;76.48
31357;BME280;60001;48.404;11.738;2023-04-02T05:18:40;95709.47;;;8.04;75.97
31357;BME280;60001;48.404;11.738;2023-04-02T05:20:20;95707.63;;;8.04;76.01
31357;BME280;60001;48.404;11.738;2023-04-02T05:21:58;95705.97;;;7.93;76.12
31357;BME280;60001;48.404;11.738;2023-04-02T05:23:34;95717.81;;;7.95;75.76
31357;BME280;60001;48.404;11.738;2023-04-02T05:25:17;95712.03;;;7.98;75.35
31357;BME280;60001;48.404;11.738;2023-04-02T05:26:57;95712.84;;;7.99;76.11
31357;BME280;60001;48.404;11.738;2023-04-02T05:28:37;95715.72;;;7.97;75.97
31357;BME280;60001;48.404;11.738;2023-04-02T05:32:12;95728.06;;;7.97;75.98
31357;BME280;60001;48.404;11.738;2023-04-02T05:33:47;95729.66;;;7.98;76.16
31357;BME280;60001;48.404;11.738;2023-04-02T05:35:26;95725.38;;;7.92;75.68
31357;BME280;60001;48.404;11.738;2023-04-02T05:36:59;95725.16;;;7.93;75.77
31357;BME280;60001;48.404;11.738;2023-04-02T05:38:34;95725.16;;;7.93;76.04
31357;BME280;60001;48.404;11.738;2023-04-02T05:40:13;95732.00;;;7.94;75.69
31357;BME280;60001;48.404;11.738;2023-04-02T05:41:45;95727.53;;;7.95;75.72
31357;BME280;60001;48.404;11.738;2023-04-02T05:43:24;95735.16;;;7.96;75.84
31357;BME280;60001;48.404;11.738;2023-04-02T05:45:07;95739.91;;;8.00;75.98
31357;BME280;60001;48.404;11.738;2023-04-02T05:46:52;95733.63;;;8.01;75.87
31357;BME280;60001;48.404;11.738;2023-04-02T05:48:29;95745.19;;;8.00;75.97
31357;BME280;60001;48.404;11.738;2023-04-02T05:50:19;95740.75;;;8.05;75.62
31357;BME280;60001;48.404;11.738;2023-04-02T05:51:59;95744.97;;;8.06;76.04
31357;BME280;60001;48.404;11.738;2023-04-02T05:53:33;95745.28;;;8.10;75.78
31357;BME280;60001;48.404;11.738;2023-04-02T05:55:27;95752.91;;;8.11;75.80
31357;BME280;60001;48.404;11.738;2023-04-02T05:57:04;95749.25;;;8.12;75.29
31357;BME280;60001;48.404;11.738;2023-04-02T05:58:45;95752.44;;;8.14;75.54
31357;BME280;60001;48.404;11.738;2023-04-02T06:00:25;95746.94;;;8.16;75.52
31357;BME280;60001;48.404;11.738;2023-04-02T06:02:05;95759.63;;;8.24;75.18
31357;BME280;60001;48.404;11.738;2023-04-02T06:03:45;95746.72;;;8.22;75.04
31357;BME280;60001;48.404;11.738;2023-04-02T06:05:23;95760.13;;;8.21;74.96
31357;BME280;60001;48.404;11.738;2023-04-02T06:06:59;95767.00;;;8.27;75.19
31357;BME280;60001;48.404;11.738;2023-04-02T06:08:38;95763.81;;;8.25;74.22
31357;BME280;60001;48.404;11.738;2023-04-02T06:10:16;95762.56;;;8.28;74.63
31357;BME280;60001;48.404;11.738;2023-04-02T06:11:58;95772.06;;;8.34;74.71
31357;BME280;60001;48.404;11.738;2023-04-02T06:13:32;95771.84;;;8.35;74.69
31357;BME280;60001;48.404;11.738;2023-04-02T06:15:11;95768.44;;;8.40;75.09
31357;BME280;60001;48.404;11.738;2023-04-02T06:16:45;95778.25;;;8.44;74.66
31357;BME280;60001;48.404;11.738;2023-04-02T06:18:19;95782.44;;;8.45;75.09
31357;BME280;60001;48.404;11.738;2023-04-02T06:19:56;95777.50;;;8.49;74.50
31357;BME280;60001;48.404;11.738;2023-04-02T06:21:29;95782.75;;;8.49;74.45
31357;BME280;60001;48.404;11.738;2023-04-02T06:23:08;95783.28;;;8.51;74.50
31357;BME280;60001;48.404;11.738;2023-04-02T06:24:45;95776.34;;;8.40;74.29
31357;BME280;60001;48.404;11.738;2023-04-02T06:26:24;95785.63;;;8.47;73.81
31357;BME280;60001;48.404;11.738;2023-04-02T06:28:02;95783.81;;;8.53;74.50
31357;BME280;60001;48.404;11.738;2023-04-02T06:29:41;95789.09;;;8.53;74.13
31357;BME280;60001;48.404;11.738;2023-04-02T06:31:26;95796.00;;;8.59;74.27
31357;BME280;60001;48.404;11.738;2023-04-02T06:32:58;95779.19;;;8.65;73.62
31357;BME280;60001;48.404;11.738;2023-04-02T06:34:31;95792.41;;;8.70;73.98
31357;BME280;60001;48.404;11.738;2023-04-02T06:36:06;95794.53;;;8.73;73.60
31357;BME280;60001;48.404;11.738;2023-04-02T06:37:43;95793.72;;;8.73;73.68
31357;BME280;60001;48.404;11.738;2023-04-02T06:39:18;95784.41;;;8.60;73.65
31357;BME280;60001;48.404;11.738;2023-04-02T06:40:55;95791.84;;;8.68;73.74
31357;BME280;60001;48.404;11.738;2023-04-02T06:42:32;95795.00;;;8.65;73.17
31357;BME280;60001;48.404;11.738;2023-04-02T06:44:12;95797.41;;;8.72;73.25
31357;BME280;60001;48.404;11.738;2023-04-02T06:45:51;95801.09;;;8.76;73.49
31357;BME280;60001;48.404;11.738;2023-04-02T06:47:34;95796.94;;;8.80;73.28
31357;BME280;60001;48.404;11.738;2023-04-02T06:49:18;95812.53;;;8.87;73.51
31357;BME280;60001;48.404;11.738;2023-04-02T06:50:56;95802.28;;;8.90;73.63
31357;BME280;60001;48.404;11.738;2023-04-02T06:52:36;95800.69;;;8.89;73.72
31357;BME280;60001;48.404;11.738;2023-04-02T06:54:14;95810.69;;;8.87;72.86
31357;BME280;60001;48.404;11.738;2023-04-02T06:55:49;95814.63;;;8.90;73.47
31357;BME280;60001;48.404;11.738;2023-04-02T06:57:22;95814.97;;;8.98;72.99
31357;BME280;60001;48.404;11.738;2023-04-02T06:58:54;95806.56;;;9.01;73.27
31357;BME280;60001;48.404;11.738;2023-04-02T07:00:34;95819.78;;;9.06;73.05
31357;BME280;60001;48.404;11.738;2023-04-02T07:02:25;95816.66;;;9.15;73.10
31357;BME280;60001;48.404;11.738;2023-04-02T07:03:59;95820.09;;;9.15;72.49
31357;BME280;60001;48.404;11.738;2023-04-02T07:05:31;95823.25;;;9.17;73.02
31357;BME280;60001;48.404;11.738;2023-04-02T07:07:03;95823.03;;;9.24;72.89
31357;BME280;60001;48.404;11.738;2023-04-02T07:08:35;95827.50;;;9.23;72.39
31357;BME280;60001;48.404;11.738;2023-04-02T07:10:07;95832.47;;;9.15;72.25
31357;BME280;60001;48.404;11.738;2023-04-02T07:11:39;95826.19;;;9.21;72.84
31357;BME280;60001;48.404;11.738;2023-04-02T07:13:14;95826.47;;;9.24;72.14
31357;BME280;60001;48.404;11.738;2023-04-02T07:14:46;95826.22;;;9.31;71.76
31357;BME280;60001;48.404;11.738;2023-04-02T07:16:20;95830.78;;;9.41;72.58
31357;BME280;60001;48.404;11.738;2023-04-02T07:17:54;95827.88;;;9.42;71.88
31357;BME280;60001;48.404;11.738;2023-04-02T07:19:28;95837.69;;;9.52;71.74
31357;BME280;60001;48.404;11.738;2023-04-02T07:21:00;95828.75;;;9.58;71.94
31357;BME280;60001;48.404;11.738;2023-04-02T07:22:31;95832.75;;;9.66;71.85
31357;BME280;60001;48.404;11.738;2023-04-02T07:24:04;95836.50;;;9.75;71.46
31357;BME280;60001;48.404;11.738;2023-04-02T07:25:36;95839.66;;;9.77;70.91
31357;BME280;60001;48.404;11.738;2023-04-02T07:27:09;95832.28;;;9.79;70.70
31357;BME280;60001;48.404;11.738;2023-04-02T07:28:41;95841.56;;;9.92;70.79
31357;BME280;60001;48.404;11.738;2023-04-02T07:30:13;95841.31;;;9.98;70.33
31357;BME280;60001;48.404;11.738;2023-04-02T07:31:44;95845.59;;;10.14;71.37
31357;BME280;60001;48.404;11.738;2023-04-02T07:33:19;95839.81;;;10.18;69.56
31357;BME280;60001;48.404;11.738;2023-04-02T07:34:53;95843.56;;;10.27;69.11
31357;BME280;60001;48.404;11.738;2023-04-02T07:36:27;95850.97;;;10.40;69.31
31357;BME280;60001;48.404;11.738;2023-04-02T07:37:59;95853.63;;;10.55;69.04
31357;BME280;60001;48.404;11.738;2023-04-02T07:39:31;95853.94;;;10.64;68.77
31357;BME280;60001;48.404;11.738;2023-04-02T07:41:04;95854.69;;;10.59;67.72
31357;BME280;60001;48.404;11.738;2023-04-02T07:42:36;95853.13;;;10.58;67.06
31357;BME280;60001;48.404;11.738;2023-04-02T07:44:09;95861.84;;;10.64;67.20
31357;BME280;60001;48.404;11.738;2023-04-02T07:45:40;95867.41;;;10.73;67.05
31357;BME280;60001;48.404;11.738;2023-04-02T07:47:12;95857.88;;;10.82;67.23
31357;BME280;60001;48.404;11.738;2023-04-02T07:48:44;95869.25;;;10.87;66.39
31357;BME280;60001;48.404;11.738;2023-04-02T07:50:18;95871.38;;;10.85;66.15
31357;BME280;60001;48.404;11.738;2023-04-02T07:51:50;95866.63;;;10.87;66.69
31357;BME280;60001;48.404;11.738;2023-04-02T07:53:28;95870.84;;;10.88;66.61
31357;BME280;60001;48.404;11.738;2023-04-02T07:55:00;95870.28;;;10.91;66.37
31357;BME280;60001;48.404;11.738;2023-04-02T07:56:33;95877.97;;;10.93;66.33
31357;BME280;60001;48.404;11.738;2023-04-02T07:58:05;95875.84;;;10.95;65.60
31357;BME280;60001;48.404;11.738;2023-04-02T07:59:36;95874.53;;;10.87;65.56
31357;BME280;60001;48.404;11.738;2023-04-02T08:01:15;95872.16;;;10.81;65.84
31357;BME280;60001;48.404;11.738;2023-04-02T08:02:48;95879.28;;;10.80;65.16
31357;BME280;60001;48.404;11.738;2023-04-02T08:04:21;95881.41;;;10.78;65.10
31357;BME280;60001;48.404;11.738;2023-04-02T08:05:56;95880.84;;;10.76;65.16
31357;BME280;60001;48.404;11.738;2023-04-02T08:07:28;95882.19;;;10.74;65.39
31357;BME280;60001;48.404;11.738;2023-04-02T08:09:01;95892.47;;;10.70;66.00
31357;BME280;60001;48.404;11.738;2023-04-02T08:10:33;95882.16;;;10.68;66.51
31357;BME280;60001;48.404;11.738;2023-04-02T08:12:05;95886.66;;;10.68;66.81
31357;BME280;60001;48.404;11.738;2023-04-02T08:13:37;95891.41;;;10.66;65.71
31357;BME280;60001;48.404;11.738;2023-04-02T08:15:13;95884.28;;;10.61;65.83
31357;BME280;60001;48.404;11.738;2023-04-02T08:16:46;95894.81;;;10.56;65.68
31357;BME280;60001;48.404;11.738;2023-04-02T08:18:21;95888.25;;;10.64;65.82
31357;BME280;60001;48.404;11.738;2023-04-02T08:19:53;95894.31;;;10.69;65.92
31357;BME280;60001;48.404;11.738;2023-04-02T08:21:26;95904.88;;;10.75;66.30
31357;BME280;60001;48.404;11.738;2023-04-02T08:22:58;95902.78;;;10.66;66.56
31357;BME280;60001;48.404;11.738;2023-04-02T08:24:31;95903.31;;;10.79;65.69
31357;BME280;60001;48.404;11.738;2023-04-02T08:26:04;95910.69;;;10.77;65.29
31357;BME280;60001;48.404;11.738;2023-04-02T08:27:36;95912.03;;;10.84;66.14
31357;BME280;60001;48.404;11.738;2023-04-02T08:29:08;95918.38;;;10.78;65.29
31357;BME280;60001;48.404;11.738;2023-04-02T08:30:39;95909.66;;;10.83;66.02
31357;BME280;60001;48.404;11.738;2023-04-02T08:32:14;95916.00;;;10.82;65.91
31357;BME280;60001;48.404;11.738;2023-04-02T08:33:46;95908.59;;;10.84;66.40
31357;BME280;60001;48.404;11.738;2023-04-02T08:35:18;95913.38;;;10.87;65.70
31357;BME280;60001;48.404;11.738;2023-04-02T08:36:55;95916.00;;;10.87;65.86
31357;BME280;60001;48.404;11.738;2023-04-02T08:38:27;95918.09;;;10.90;65.69